Time;durP1;ratioP1;P1;durP2;ratioP2;P2;SDS_P1;SDS_P2;PMS_P1;PMS_P2;Temp;Humidity;BMP_temperature;BMP_pressure;BME280_temperature;BME280_humidity;BME280_pressure;Samples;Min_cycle;Max_cycle;Signal;HPM_P1;HPM_P2
2021/11/16 13:38:03;;;;;;;48.33;20.10;;;6.00;99.90;;;;;;5065604;27;20349;-78
2021/11/16 13:40:29;;;;;;;56.37;21.30;;;6.00;99.90;;;;;;5053699;28;20315;-79
2021/11/16 13:43:04;;;;;;;52.00;21.07;;;6.00;99.90;;;;;;5074467;28;20158;-80
2021/11/16 13:45:33;;;;;;;56.57;23.47;;;6.00;99.90;;;;;;5065855;28;20786;-77
2021/11/16 13:47:58;;;;;;;47.63;22.23;;;6.10;99.90;;;;;;5068675;28;20307;-77
2021/11/16 13:50:28;;;;;;;57.03;21.97;;;6.10;99.90;;;;;;5067372;28;20315;-77
2021/11/16 13:53:03;;;;;;;51.70;22.30;;;6.10;99.90;;;;;;5048755;28;20186;-76
2021/11/16 13:55:40;;;;;;;58.97;23.63;;;6.20;99.90;;;;;;5047729;28;20053;-75
2021/11/16 13:58:10;;;;;;;51.20;22.43;;;6.30;99.90;;;;;;5051949;28;20291;-80
2021/11/16 14:00:40;;;;;;;49.83;21.50;;;6.30;99.90;;;;;;5053297;28;20051;-80
2021/11/16 14:03:12;;;;;;;57.27;23.03;;;6.40;99.90;;;;;;5056880;28;20044;-78
2021/11/16 14:05:43;;;;;;;48.60;21.50;;;6.50;99.90;;;;;;5058462;28;20045;-78
2021/11/16 14:08:12;;;;;;;51.75;22.58;;;6.50;99.90;;;;;;5047296;28;20151;-78
2021/11/16 14:10:45;;;;;;;45.37;21.57;;;6.60;99.90;;;;;;5047403;28;20063;-74
2021/11/16 14:13:21;;;;;;;43.07;20.40;;;6.60;99.90;;;;;;5065411;28;20049;-74
2021/11/16 14:15:49;;;;;;;43.80;20.13;;;6.70;99.90;;;;;;5051008;28;20657;-79
2021/11/16 14:18:20;;;;;;;48.27;22.07;;;6.70;99.90;;;;;;5078277;28;20048;-80
2021/11/16 14:20:55;;;;;;;42.47;19.23;;;6.80;99.90;;;;;;5063259;28;20054;-79
2021/11/16 14:23:22;;;;;;;38.70;19.60;;;6.80;99.90;;;;;;5062966;28;20052;-81
2021/11/16 14:25:56;;;;;;;42.87;19.27;;;6.90;99.90;;;;;;5058461;28;20044;-81
2021/11/16 14:28:31;;;;;;;41.73;20.23;;;6.80;99.90;;;;;;5076731;28;20049;-83
2021/11/16 14:30:58;;;;;;;43.90;22.50;;;6.90;99.90;;;;;;5053584;28;20882;-82
2021/11/16 14:33:25;;;;;;;44.80;22.17;;;6.90;99.90;;;;;;5070546;28;20037;-81
2021/11/16 14:35:52;;;;;;;40.60;19.87;;;6.90;99.90;;;;;;5059742;28;20059;-79
2021/11/16 14:38:18;;;;;;;47.33;21.13;;;6.90;99.90;;;;;;5059004;28;20049;-80
2021/11/16 14:40:44;;;;;;;46.20;22.20;;;6.90;99.90;;;;;;5057299;28;20779;-81
2021/11/16 14:43:25;;;;;;;50.67;23.57;;;7.00;99.90;;;;;;5048405;28;20041;-79
2021/11/16 14:45:53;;;;;;;44.75;21.73;;;6.90;99.90;;;;;;5047755;28;20053;-83
2021/11/16 14:48:32;;;;;;;40.07;19.83;;;6.90;99.90;;;;;;5046244;28;20046;-79
2021/11/16 14:51:15;;;;;;;43.10;21.07;;;6.80;99.90;;;;;;5033880;28;20732;-77
2021/11/16 14:53:42;;;;;;;42.43;20.20;;;6.80;99.90;;;;;;5033592;28;20037;-79
2021/11/16 14:56:13;;;;;;;46.70;21.03;;;6.80;99.90;;;;;;5050882;28;20123;-79
2021/11/16 14:58:48;;;;;;;42.17;20.15;;;6.80;99.90;;;;;;5050872;28;20071;-80
2021/11/16 15:01:17;;;;;;;37.77;18.33;;;6.90;99.90;;;;;;5032794;28;20049;-78
2021/11/16 15:03:44;;;;;;;43.47;20.57;;;6.90;99.90;;;;;;5033984;28;20052;-77
2021/11/16 15:06:10;;;;;;;38.73;20.50;;;7.00;99.90;;;;;;5033169;28;20045;-75
2021/11/16 15:08:35;;;;;;;38.83;20.17;;;7.00;99.90;;;;;;5036003;28;20635;-80
2021/11/16 15:11:10;;;;;;;40.90;19.97;;;7.10;99.90;;;;;;5037556;28;20048;-80
2021/11/16 15:13:36;;;;;;;38.13;18.63;;;7.10;99.90;;;;;;5044514;28;20048;-81
2021/11/16 15:16:22;;;;;;;39.10;18.77;;;7.10;99.90;;;;;;5045638;28;20040;-75
2021/11/16 15:19:17;;;;;;;37.57;18.90;;;7.10;99.90;;;;;;5037303;28;20057;-79
2021/11/16 15:21:59;;;;;;;41.73;19.33;;;7.10;99.90;;;;;;5039939;28;20041;-78
2021/11/16 15:26:59;;;;;;;42.17;19.60;;;7.10;99.90;;;;;;5033841;28;20052;-75
2021/11/16 15:29:25;;;;;;;43.47;20.50;;;7.00;99.90;;;;;;5049866;28;20056;-78
2021/11/16 15:31:51;;;;;;;39.27;19.23;;;7.00;99.90;;;;;;5033811;28;20065;-79
2021/11/16 15:34:17;;;;;;;41.90;21.70;;;7.10;99.90;;;;;;5033520;28;20068;-79
2021/11/16 15:36:44;;;;;;;46.23;22.13;;;7.10;99.90;;;;;;5041232;28;20052;-74
2021/11/16 15:39:14;;;;;;;45.00;22.23;;;7.20;99.90;;;;;;5050985;28;20059;-76
2021/11/16 15:45:04;;;;;;;50.03;22.50;;;7.10;99.90;;;;;;5054653;28;20214;-74
2021/11/16 15:47:37;;;;;;;48.50;21.73;;;7.10;99.90;;;;;;5051260;28;20068;-74
2021/11/16 15:50:35;;;;;;;48.37;22.73;;;7.10;99.90;;;;;;5050288;28;20052;-79
2021/11/16 15:53:30;;;;;;;48.17;22.10;;;7.00;99.90;;;;;;5050412;28;20040;-79
2021/11/16 15:58:48;;;;;;;44.00;23.07;;;6.80;99.90;;;;;;5055877;28;20049;-73
2021/11/16 16:01:16;;;;;;;51.37;23.73;;;6.80;99.90;;;;;;5048979;28;20048;-72
2021/11/16 16:03:57;;;;;;;43.20;22.20;;;6.90;99.90;;;;;;5048405;28;20045;-77
2021/11/16 16:06:27;;;;;;;43.63;21.90;;;7.00;99.90;;;;;;5052066;28;20049;-78
2021/11/16 16:09:02;;;;;;;40.13;20.37;;;7.00;99.90;;;;;;5051109;28;20110;-82
2021/11/16 16:11:32;;;;;;;48.30;23.47;;;7.00;99.90;;;;;;5054842;28;20064;-80
2021/11/16 16:14:20;;;;;;;50.63;23.60;;;7.00;99.90;;;;;;5050696;28;20045;-75
2021/11/16 16:16:53;;;;;;;41.43;21.40;;;7.10;99.90;;;;;;5048399;28;20037;-75
2021/11/16 16:19:21;;;;;;;43.77;20.67;;;7.20;99.90;;;;;;5046969;28;20045;-76
2021/11/16 16:21:47;;;;;;;37.73;19.67;;;7.20;99.90;;;;;;5047675;28;20072;-77
2021/11/16 16:24:13;;;;;;;40.13;20.00;;;7.20;99.90;;;;;;5050146;28;20052;-75
2021/11/16 16:26:39;;;;;;;40.67;20.80;;;7.20;99.90;;;;;;5047311;28;20045;-75
2021/11/16 16:29:08;;;;;;;46.80;22.33;;;7.20;99.90;;;;;;5049042;28;20041;-81
2021/11/16 16:31:36;;;;;;;47.90;21.27;;;7.10;99.90;;;;;;5052946;28;20068;-77
2021/11/16 16:34:04;;;;;;;41.63;20.60;;;7.10;99.90;;;;;;5056458;28;20521;-79
2021/11/16 16:36:30;;;;;;;46.33;20.77;;;7.10;99.90;;;;;;5049097;28;20455;-77
2021/11/16 16:38:59;;;;;;;44.70;21.17;;;7.10;99.90;;;;;;5052559;28;20048;-81
2021/11/16 16:41:25;;;;;;;40.83;20.97;;;7.10;99.90;;;;;;5058224;28;20460;-81
2021/11/16 16:44:24;;;;;;;40.43;19.30;;;7.10;99.90;;;;;;5053739;28;20106;-80
2021/11/16 16:46:58;;;;;;;36.60;18.53;;;7.10;99.90;;;;;;5051714;28;20049;-81
2021/11/16 16:49:29;;;;;;;46.77;30.13;;;7.20;99.90;;;;;;5046500;28;20063;-78
2021/11/16 16:51:58;;;;;;;40.70;19.37;;;7.10;99.90;;;;;;5046467;28;20737;-78
2021/11/16 16:54:25;;;;;;;37.03;18.23;;;7.20;99.90;;;;;;5047987;28;20083;-79
2021/11/16 16:56:54;;;;;;;35.80;17.13;;;7.10;99.90;;;;;;5047235;28;20521;-79
2021/11/16 16:59:25;;;;;;;33.77;18.03;;;7.10;99.90;;;;;;5046960;28;20524;-76
2021/11/16 17:01:53;;;;;;;31.90;17.20;;;7.10;99.90;;;;;;5047544;28;20045;-78
2021/11/16 17:04:27;;;;;;;37.17;17.57;;;7.10;99.90;;;;;;5048510;28;20048;-79
2021/11/16 17:06:54;;;;;;;37.57;18.77;;;7.10;99.90;;;;;;5047319;28;20132;-78
2021/11/16 17:09:20;;;;;;;36.77;17.27;;;7.00;99.90;;;;;;5047505;28;20482;-77
2021/11/16 17:11:46;;;;;;;32.80;17.67;;;7.00;99.90;;;;;;5046790;28;20052;-80
2021/11/16 17:14:12;;;;;;;30.83;15.70;;;6.90;99.90;;;;;;5045761;28;20095;-79
2021/11/16 17:16:37;;;;;;;34.63;17.97;;;6.90;99.90;;;;;;5048021;28;20044;-78
2021/11/16 17:19:05;;;;;;;31.90;16.10;;;6.90;99.90;;;;;;5046312;28;20045;-77
2021/11/16 17:21:34;;;;;;;35.57;17.63;;;6.90;99.90;;;;;;5048257;28;20496;-75
2021/11/16 17:24:02;;;;;;;30.77;16.80;;;6.90;99.90;;;;;;5046962;28;20469;-78
2021/11/16 17:26:30;;;;;;;32.37;15.13;;;6.90;99.90;;;;;;5046008;28;20049;-74
2021/11/16 17:28:56;;;;;;;33.00;17.23;;;7.00;99.90;;;;;;5047652;28;20049;-77
2021/11/16 17:31:21;;;;;;;30.40;16.27;;;7.00;99.90;;;;;;5046590;28;20068;-74
2021/11/16 17:33:47;;;;;;;28.77;16.20;;;7.00;99.90;;;;;;5047250;28;20122;-75
2021/11/16 17:36:13;;;;;;;37.27;17.80;;;7.00;99.90;;;;;;5047019;28;20482;-74
2021/11/16 17:38:39;;;;;;;23.77;12.83;;;7.00;99.90;;;;;;5030600;28;20053;-75
2021/11/16 17:41:07;;;;;;;29.27;15.93;;;7.00;99.90;;;;;;5029602;28;20049;-74
2021/11/16 17:43:33;;;;;;;32.27;15.67;;;7.00;99.90;;;;;;5029696;28;20063;-76
2021/11/16 17:45:59;;;;;;;31.70;15.27;;;6.90;99.90;;;;;;5029932;28;20049;-75
